| time (UTC) | temp C | wind direction | speed KPH | gust KPH | rain 1hr cm | rain 24hr cm | rain mn cm | humidity % | barometer mb |
| 20260507170036 | 12 | 101 | 0.0 | 12.9 | 0.30 | 2.84 | 2.84 | 95 | 1011.5 |
| 20260507164600 | 12 | 156 | 3.2 | 12.9 | 0.41 | 2.82 | 2.82 | 95 | 1011.0 |
| 20260507163042 | 12 | 34 | 1.6 | 11.3 | 0.41 | 2.74 | 2.74 | 95 | 1011.0 |
| 20260507161541 | 12 | 123 | 4.8 | 19.3 | 0.48 | 2.67 | 2.67 | 94 | 1011.2 |
| 20260507160036 | 12 | 127 | 6.4 | 17.7 | 0.58 | 2.54 | 2.54 | 95 | 1011.2 |
| 20260507154536 | 12 | 250 | 1.6 | 12.9 | 0.53 | 2.41 | 2.41 | 95 | 1011.0 |
| 20260507153039 | 12 | 45 | 3.2 | 12.9 | 0.48 | 2.34 | 2.34 | 95 | 1011.2 |
| 20260507151538 | 12 | 27 | 3.2 | 20.9 | 0.36 | 2.18 | 2.18 | 93 | 1011.5 |
| 20260507150043 | 12 | 9 | 6.4 | 22.5 | 0.13 | 1.96 | 1.96 | 92 | 1011.9 |
| 20260507144534 | 13 | 30 | 6.4 | 17.7 | 0.05 | 1.88 | 1.88 | 92 | 1011.3 |
| 20260507143028 | 13 | 116 | 4.8 | 14.5 | 0.03 | 1.85 | 1.85 | 91 | 1011.3 |
| 20260507141530 | 14 | 59 | 4.8 | 16.1 | 0.00 | 1.83 | 1.83 | 92 | 1011.0 |
| 20260507140038 | 15 | 19 | 8.0 | 16.1 | 0.03 | 1.83 | 1.83 | 94 | 1010.8 |
| 20260507134548 | 15 | 341 | 3.2 | 11.3 | 0.10 | 1.83 | 1.83 | 94 | 1010.9 |
| 20260507133056 | 15 | 349 | 4.8 | 17.7 | 0.13 | 1.83 | 1.83 | 94 | 1010.7 |
| 20260507131539 | 15 | 336 | 4.8 | 12.9 | 0.15 | 1.83 | 1.83 | 94 | 1010.7 |
| 20260507130007 | 15 | 5 | 4.8 | 16.1 | 0.23 | 1.80 | 1.80 | 94 | 1010.8 |
| 20260507124506 | 15 | 42 | 3.2 | 14.5 | 0.20 | 1.73 | 1.73 | 94 | 1011.2 |
| 20260507123013 | 15 | 294 | 3.2 | 17.7 | 0.20 | 1.70 | 1.70 | 94 | 1010.9 |
| 20260507121502 | 15 | 299 | 3.2 | 14.5 | 0.30 | 1.65 | 1.65 | 94 | 1011.0 |
| 20260507120001 | 15 | 131 | 3.2 | 14.5 | 0.28 | 1.57 | 1.57 | 93 | 1011.2 |
| 20260507114601 | 16 | 260 | 3.2 | 22.5 | 0.30 | 1.52 | 1.52 | 92 | 1011.0 |
| 20260507113053 | 17 | 5 | 4.8 | 12.9 | 0.36 | 1.50 | 1.50 | 91 | 1010.6 |
| 20260507111551 | 18 | 250 | 3.2 | 8.0 | 0.53 | 1.35 | 1.35 | 95 | 1010.4 |
| 20260507104548 | 18 | 244 | 4.8 | 11.3 | 1.12 | 1.22 | 1.22 | 94 | 1010.1 |
| 20260507103053 | 18 | 277 | 8.0 | 14.5 | 1.04 | 1.14 | 1.14 | 94 | 1009.9 |
| 20260507101548 | 19 | 288 | 4.8 | 11.3 | 0.71 | 0.81 | 0.81 | 93 | 1009.8 |
| 20260507100043 | 19 | 292 | 3.2 | 17.7 | 0.33 | 0.36 | 0.36 | 92 | 1009.9 |
| 20260507094540 | 19 | 287 | 4.8 | 9.7 | 0.08 | 0.10 | 0.10 | 91 | 1009.0 |
| 20260507093039 | 19 | 296 | 0.0 | 8.0 | 0.08 | 0.10 | 0.10 | 90 | 1008.9 |
| 20260507091542 | 20 | 305 | 4.8 | 16.1 | 0.05 | 0.08 | 0.08 | 88 | 1009.2 |
| 20260507090041 | 20 | 281 | 8.0 | 14.5 | 0.00 | 0.03 | 0.03 | 85 | 1009.5 |
| 20260507084539 | 20 | 290 | 3.2 | 16.1 | 0.00 | 0.03 | 0.03 | 85 | 1009.3 |
| 20260507083038 | 20 | 252 | 4.8 | 12.9 | 0.00 | 0.03 | 0.03 | 85 | 1009.4 |
| 20260507081533 | 20 | 257 | 4.8 | 12.9 | 0.00 | 0.03 | 0.03 | 85 | 1009.7 |
| 20260507080032 | 20 | 244 | 3.2 | 11.3 | 0.00 | 0.03 | 0.03 | 85 | 1009.9 |
| 20260507074541 | 20 | 223 | 6.4 | 16.1 | 0.00 | 0.03 | 0.03 | 85 | 1010.1 |
| 20260507073006 | 20 | 228 | 0.0 | 8.0 | 0.03 | 0.03 | 0.03 | 86 | 1009.9 |
| 20260507071505 | 20 | 269 | 3.2 | 12.9 | 0.03 | 0.03 | 0.03 | 85 | 1009.9 |
| 20260507070009 | 20 | 254 | 3.2 | 11.3 | 0.03 | 0.03 | 0.03 | 86 | 1009.8 |
| 20260507064502 | 20 | 261 | 0.0 | 9.7 | 0.03 | 0.03 | 0.03 | 85 | 1009.5 |
| 20260507063100 | 20 | 237 | 1.6 | 9.7 | 0.00 | 0.00 | 0.00 | 84 | 1009.2 |
| 20260507061558 | 20 | 200 | 0.0 | 8.0 | 0.00 | 0.00 | 0.00 | 83 | 1009.9 |
| 20260507060103 | 20 | 276 | 1.6 | 11.3 | 0.00 | 0.00 | 0.00 | 82 | 1010.7 |
| 20260507054554 | 21 | 251 | 3.2 | 9.7 | 0.00 | 0.00 | 0.00 | 81 | 1010.8 |
| 20260507053052 | 21 | 252 | 4.8 | 11.3 | 0.00 | 0.00 | 0.00 | 79 | 1010.8 |
| 20260507051545 | 21 | 188 | 1.6 | 9.7 | 0.00 | 0.00 | 0.00 | 78 | 1010.9 |
| 20260507050043 | 21 | 239 | 0.0 | 11.3 | 0.00 | 0.00 | 0.00 | 76 | 1010.8 |
| 20260507044539 | 22 | 234 | 1.6 | 8.0 | 0.00 | 0.00 | 0.00 | 73 | 1010.5 |
| 20260507043038 | 22 | 234 | 3.2 | 11.3 | 0.00 | 0.00 | 0.00 | 74 | 1010.6 |
| 20260507041535 | 21 | 215 | 3.2 | 11.3 | 0.00 | 0.00 | 0.00 | 75 | 1010.8 |
| 20260507040029 | 21 | 211 | 0.0 | 8.0 | 0.00 | 0.00 | 0.00 | 75 | 1010.5 |
| 20260507034548 | 21 | 211 | 3.2 | 8.0 | 0.00 | 0.00 | 0.00 | 75 | 1010.3 |
| 20260507033032 | 21 | 211 | 0.0 | 6.4 | 0.00 | 0.00 | 0.00 | 75 | 1010.3 |
| 20260507031518 | 21 | 211 | 0.0 | 9.7 | 0.00 | 0.00 | 0.00 | 75 | 1010.1 |
| 20260507030024 | 21 | 207 | 0.0 | 3.2 | 0.00 | 0.00 | 0.00 | 75 | 1010.7 |
| 20260507024521 | 21 | 207 | 0.0 | 3.2 | 0.00 | 0.00 | 0.00 | 74 | 1010.8 |
| 20260507023035 | 22 | 207 | 0.0 | 6.4 | 0.00 | 0.00 | 0.00 | 73 | 1010.9 |
| 20260507021517 | 22 | 207 | 0.0 | 3.2 | 0.00 | 0.00 | 0.00 | 72 | 1010.8 |
| 20260507014545 | 22 | 243 | 0.0 | 8.0 | 0.00 | 0.00 | 0.00 | 71 | 1011.1 |
| 20260507013005 | 22 | 246 | 0.0 | 6.4 | 0.00 | 0.00 | 0.00 | 70 | 1010.8 |
| 20260507011531 | 22 | 247 | 0.0 | 9.7 | 0.00 | 0.00 | 0.00 | 68 | 1010.7 |
| 20260507010021 | 23 | 248 | 0.0 | 8.0 | 0.00 | 0.00 | 0.00 | 67 | 1010.9 |
| 20260507004519 | 23 | 261 | 0.0 | 11.3 | 0.00 | 0.00 | 0.00 | 66 | 1010.9 |
| 20260507003029 | 23 | 238 | 0.0 | 6.4 | 0.00 | 0.00 | 0.00 | 65 | 1010.6 |
| 20260507001526 | 24 | 238 | 4.8 | 9.7 | 0.00 | 0.00 | 0.00 | 63 | 1010.5 |
| 20260506234511 | 25 | 238 | 4.8 | 12.9 | 0.00 | 0.00 | 0.00 | 61 | 1010.2 |
| 20260506233143 | 25 | 246 | 1.6 | 11.3 | 0.00 | 0.00 | 0.00 | 61 | 1010.0 |
| 20260506224530 | 25 | 246 | 1.6 | 14.5 | 0.00 | 0.00 | 0.00 | 59 | 1009.8 |
| 20260506223006 | 25 | 244 | 8.0 | 14.5 | 0.00 | 0.00 | 0.00 | 60 | 1009.9 |
| 20260506221547 | 25 | 250 | 4.8 | 19.3 | 0.00 | 0.00 | 0.00 | 59 | 1009.9 |
| 20260506214542 | 26 | 248 | 4.8 | 16.1 | 0.00 | 0.00 | 0.00 | 59 | 1009.6 |
| 20260506213112 | 26 | 261 | 4.8 | 20.9 | 0.00 | 0.00 | 0.00 | 59 | 1009.7 |
| 20260506211548 | 26 | 241 | 3.2 | 17.7 | 0.00 | 0.00 | 0.00 | 58 | 1009.4 |
| 20260506210048 | 26 | 218 | 3.2 | 14.5 | 0.00 | 0.00 | 0.00 | 60 | 1009.6 |
| 20260506204551 | 26 | 147 | 6.4 | 17.7 | 0.00 | 0.00 | 0.00 | 60 | 1009.9 |
| 20260506203021 | 26 | 248 | 4.8 | 22.5 | 0.00 | 0.00 | 0.00 | 58 | 1010.1 |
| 20260506201524 | 26 | 257 | 8.0 | 24.1 | 0.00 | 0.00 | 0.00 | 60 | 1010.4 |
| 20260506200018 | 26 | 252 | 4.8 | 12.9 | 0.00 | 0.00 | 0.00 | 64 | 1010.7 |
| 20260506194515 | 25 | 165 | 4.8 | 20.9 | 0.00 | 0.00 | 0.00 | 63 | 1011.1 |
| 20260506193012 | 26 | 271 | 3.2 | 14.5 | 0.00 | 0.00 | 0.00 | 63 | 1011.4 |
| 20260506191511 | 26 | 177 | 4.8 | 16.1 | 0.00 | 0.00 | 0.00 | 64 | 1011.4 |
| 20260506190008 | 25 | 213 | 3.2 | 20.9 | 0.00 | 0.00 | 0.00 | 64 | 1011.5 |
| 20260506184516 | 25 | 224 | 4.8 | 20.9 | 0.00 | 0.00 | 0.00 | 64 | 1011.7 |
| 20260506183007 | 25 | 217 | 8.0 | 17.7 | 0.00 | 0.00 | 0.00 | 64 | 1011.6 |
| 20260506181503 | 25 | 248 | 4.8 | 20.9 | 0.00 | 0.00 | 0.00 | 64 | 1011.9 |
| 20260506174607 | 24 | 279 | 4.8 | 22.5 | 0.00 | 0.00 | 0.00 | 64 | 1012.5 |
| 20260506173032 | 24 | 194 | 11.3 | 30.6 | 0.00 | 0.00 | 0.00 | 64 | 1012.8 |
| 20260506171531 | 23 | 248 | 4.8 | 17.7 | 0.00 | 0.00 | 0.00 | 67 | 1013.2 |